sensor_id;sensor_type;location;lat;lon;timestamp;P1;durP1;ratioP1;P2;durP2;ratioP2
52468;SDS011;38381;53.688;10.776;2024-03-02T00:02:57;33.15;;;21.70;;
52468;SDS011;38381;53.688;10.776;2024-03-02T00:07:58;30.70;;;20.53;;
52468;SDS011;38381;53.688;10.776;2024-03-02T00:13:00;35.80;;;23.27;;
52468;SDS011;38381;53.688;10.776;2024-03-02T00:18:00;28.27;;;21.80;;
52468;SDS011;38381;53.688;10.776;2024-03-02T00:23:08;36.60;;;25.30;;
52468;SDS011;38381;53.688;10.776;2024-03-02T00:28:13;26.67;;;20.88;;
52468;SDS011;38381;53.688;10.776;2024-03-02T00:33:14;37.10;;;21.75;;
52468;SDS011;38381;53.688;10.776;2024-03-02T00:38:14;30.15;;;21.17;;
52468;SDS011;38381;53.688;10.776;2024-03-02T00:48:24;30.10;;;21.27;;
52468;SDS011;38381;53.688;10.776;2024-03-02T00:53:25;27.83;;;20.45;;
52468;SDS011;38381;53.688;10.776;2024-03-02T00:58:27;30.70;;;23.27;;
52468;SDS011;38381;53.688;10.776;2024-03-02T01:03:27;25.52;;;20.38;;
52468;SDS011;38381;53.688;10.776;2024-03-02T01:08:28;31.98;;;23.63;;
52468;SDS011;38381;53.688;10.776;2024-03-02T01:13:28;31.70;;;22.58;;
52468;SDS011;38381;53.688;10.776;2024-03-02T01:18:29;34.50;;;23.58;;
52468;SDS011;38381;53.688;10.776;2024-03-02T01:23:30;28.80;;;20.77;;
52468;SDS011;38381;53.688;10.776;2024-03-02T01:28:31;31.40;;;21.23;;
52468;SDS011;38381;53.688;10.776;2024-03-02T01:33:31;31.10;;;22.88;;
52468;SDS011;38381;53.688;10.776;2024-03-02T01:38:31;35.58;;;23.25;;
52468;SDS011;38381;53.688;10.776;2024-03-02T01:43:32;32.00;;;24.10;;
52468;SDS011;38381;53.688;10.776;2024-03-02T01:48:32;35.97;;;24.47;;
52468;SDS011;38381;53.688;10.776;2024-03-02T01:53:34;36.63;;;23.92;;
52468;SDS011;38381;53.688;10.776;2024-03-02T01:58:35;32.47;;;23.85;;
52468;SDS011;38381;53.688;10.776;2024-03-02T02:03:36;33.97;;;24.30;;
52468;SDS011;38381;53.688;10.776;2024-03-02T02:08:37;28.92;;;22.42;;
52468;SDS011;38381;53.688;10.776;2024-03-02T02:13:38;30.50;;;23.40;;
52468;SDS011;38381;53.688;10.776;2024-03-02T02:18:38;32.40;;;22.80;;
52468;SDS011;38381;53.688;10.776;2024-03-02T02:23:38;37.67;;;25.65;;
52468;SDS011;38381;53.688;10.776;2024-03-02T02:28:39;32.42;;;22.85;;
52468;SDS011;38381;53.688;10.776;2024-03-02T02:33:46;34.58;;;24.05;;
52468;SDS011;38381;53.688;10.776;2024-03-02T02:38:47;31.73;;;21.50;;
52468;SDS011;38381;53.688;10.776;2024-03-02T02:43:49;38.38;;;25.23;;
52468;SDS011;38381;53.688;10.776;2024-03-02T02:48:49;35.78;;;24.42;;
52468;SDS011;38381;53.688;10.776;2024-03-02T02:53:51;31.25;;;21.35;;
52468;SDS011;38381;53.688;10.776;2024-03-02T02:58:52;32.53;;;23.38;;
52468;SDS011;38381;53.688;10.776;2024-03-02T03:03:52;33.73;;;23.50;;
52468;SDS011;38381;53.688;10.776;2024-03-02T03:08:52;37.47;;;25.17;;
52468;SDS011;38381;53.688;10.776;2024-03-02T03:13:53;37.92;;;25.50;;
52468;SDS011;38381;53.688;10.776;2024-03-02T03:18:54;33.03;;;24.13;;
52468;SDS011;38381;53.688;10.776;2024-03-02T03:23:55;32.45;;;24.42;;
52468;SDS011;38381;53.688;10.776;2024-03-02T03:28:55;41.38;;;25.83;;
52468;SDS011;38381;53.688;10.776;2024-03-02T03:33:56;36.05;;;25.33;;
52468;SDS011;38381;53.688;10.776;2024-03-02T03:38:56;34.30;;;24.15;;
52468;SDS011;38381;53.688;10.776;2024-03-02T03:43:57;39.22;;;27.30;;
52468;SDS011;38381;53.688;10.776;2024-03-02T03:48:58;42.20;;;26.88;;
52468;SDS011;38381;53.688;10.776;2024-03-02T03:53:59;34.88;;;26.05;;
52468;SDS011;38381;53.688;10.776;2024-03-02T03:58:59;38.45;;;27.48;;
52468;SDS011;38381;53.688;10.776;2024-03-02T04:04:00;33.67;;;23.73;;
52468;SDS011;38381;53.688;10.776;2024-03-02T04:09:02;36.57;;;26.57;;
52468;SDS011;38381;53.688;10.776;2024-03-02T04:14:04;37.73;;;25.47;;
52468;SDS011;38381;53.688;10.776;2024-03-02T04:19:06;33.80;;;26.83;;
52468;SDS011;38381;53.688;10.776;2024-03-02T04:24:06;34.55;;;24.80;;
52468;SDS011;38381;53.688;10.776;2024-03-02T04:29:07;39.55;;;26.90;;
52468;SDS011;38381;53.688;10.776;2024-03-02T04:34:07;39.20;;;27.10;;
52468;SDS011;38381;53.688;10.776;2024-03-02T04:39:08;37.72;;;26.55;;
52468;SDS011;38381;53.688;10.776;2024-03-02T04:44:09;36.58;;;26.20;;
52468;SDS011;38381;53.688;10.776;2024-03-02T04:49:10;39.03;;;28.83;;
52468;SDS011;38381;53.688;10.776;2024-03-02T04:54:10;39.13;;;28.27;;
52468;SDS011;38381;53.688;10.776;2024-03-02T04:59:11;43.25;;;27.15;;
52468;SDS011;38381;53.688;10.776;2024-03-02T05:04:11;41.42;;;27.95;;
52468;SDS011;38381;53.688;10.776;2024-03-02T05:09:12;47.13;;;30.10;;
52468;SDS011;38381;53.688;10.776;2024-03-02T05:14:12;44.20;;;28.13;;
52468;SDS011;38381;53.688;10.776;2024-03-02T05:19:13;35.05;;;25.45;;
52468;SDS011;38381;53.688;10.776;2024-03-02T05:24:13;38.88;;;26.13;;
52468;SDS011;38381;53.688;10.776;2024-03-02T05:29:13;40.95;;;27.75;;
52468;SDS011;38381;53.688;10.776;2024-03-02T05:34:14;42.50;;;27.95;;
52468;SDS011;38381;53.688;10.776;2024-03-02T05:39:15;40.90;;;25.52;;
52468;SDS011;38381;53.688;10.776;2024-03-02T05:44:16;46.28;;;27.63;;
52468;SDS011;38381;53.688;10.776;2024-03-02T05:49:16;40.67;;;25.67;;
52468;SDS011;38381;53.688;10.776;2024-03-02T05:54:16;35.83;;;27.40;;
52468;SDS011;38381;53.688;10.776;2024-03-02T05:59:17;34.88;;;26.80;;
52468;SDS011;38381;53.688;10.776;2024-03-02T06:04:18;40.70;;;28.25;;
52468;SDS011;38381;53.688;10.776;2024-03-02T06:09:19;37.58;;;26.02;;
52468;SDS011;38381;53.688;10.776;2024-03-02T06:14:20;40.70;;;26.55;;
52468;SDS011;38381;53.688;10.776;2024-03-02T06:19:20;38.40;;;28.33;;
52468;SDS011;38381;53.688;10.776;2024-03-02T06:24:21;42.95;;;26.77;;
52468;SDS011;38381;53.688;10.776;2024-03-02T06:29:21;40.20;;;28.08;;
52468;SDS011;38381;53.688;10.776;2024-03-02T06:34:22;38.85;;;28.38;;
52468;SDS011;38381;53.688;10.776;2024-03-02T06:39:22;43.63;;;27.75;;
52468;SDS011;38381;53.688;10.776;2024-03-02T06:44:23;43.63;;;28.38;;
52468;SDS011;38381;53.688;10.776;2024-03-02T06:49:23;39.65;;;28.23;;
52468;SDS011;38381;53.688;10.776;2024-03-02T06:54:23;45.90;;;31.10;;
52468;SDS011;38381;53.688;10.776;2024-03-02T06:59:24;40.03;;;27.00;;
52468;SDS011;38381;53.688;10.776;2024-03-02T07:04:24;39.17;;;28.80;;
52468;SDS011;38381;53.688;10.776;2024-03-02T07:09:25;41.90;;;27.80;;
52468;SDS011;38381;53.688;10.776;2024-03-02T07:14:26;37.80;;;26.48;;
52468;SDS011;38381;53.688;10.776;2024-03-02T07:19:48;44.53;;;27.52;;
52468;SDS011;38381;53.688;10.776;2024-03-02T07:24:48;40.03;;;28.80;;
52468;SDS011;38381;53.688;10.776;2024-03-02T07:29:49;37.88;;;27.27;;
52468;SDS011;38381;53.688;10.776;2024-03-02T07:34:50;41.10;;;26.98;;
52468;SDS011;38381;53.688;10.776;2024-03-02T07:39:51;43.58;;;29.58;;
52468;SDS011;38381;53.688;10.776;2024-03-02T07:44:51;36.00;;;27.45;;
52468;SDS011;38381;53.688;10.776;2024-03-02T07:49:52;40.28;;;30.33;;
52468;SDS011;38381;53.688;10.776;2024-03-02T07:54:52;37.78;;;27.45;;
52468;SDS011;38381;53.688;10.776;2024-03-02T07:59:54;36.97;;;28.10;;
52468;SDS011;38381;53.688;10.776;2024-03-02T08:04:54;39.42;;;28.33;;
52468;SDS011;38381;53.688;10.776;2024-03-02T08:09:55;37.20;;;28.13;;
52468;SDS011;38381;53.688;10.776;2024-03-02T08:14:55;46.60;;;30.97;;
52468;SDS011;38381;53.688;10.776;2024-03-02T08:19:56;39.67;;;26.67;;
52468;SDS011;38381;53.688;10.776;2024-03-02T08:24:56;37.65;;;26.05;;
52468;SDS011;38381;53.688;10.776;2024-03-02T08:29:57;39.75;;;27.08;;
52468;SDS011;38381;53.688;10.776;2024-03-02T08:34:57;42.05;;;26.83;;
52468;SDS011;38381;53.688;10.776;2024-03-02T08:39:57;39.03;;;27.67;;
52468;SDS011;38381;53.688;10.776;2024-03-02T08:44:58;39.80;;;27.52;;
52468;SDS011;38381;53.688;10.776;2024-03-02T08:50:01;38.42;;;26.35;;
52468;SDS011;38381;53.688;10.776;2024-03-02T08:55:01;42.80;;;28.85;;
52468;SDS011;38381;53.688;10.776;2024-03-02T09:00:02;44.47;;;26.17;;
52468;SDS011;38381;53.688;10.776;2024-03-02T09:05:05;40.40;;;29.05;;
52468;SDS011;38381;53.688;10.776;2024-03-02T09:10:06;41.33;;;28.38;;
52468;SDS011;38381;53.688;10.776;2024-03-02T09:15:08;42.93;;;27.37;;
52468;SDS011;38381;53.688;10.776;2024-03-02T09:20:08;40.40;;;28.88;;
52468;SDS011;38381;53.688;10.776;2024-03-02T09:25:09;38.10;;;27.73;;
52468;SDS011;38381;53.688;10.776;2024-03-02T09:30:10;38.47;;;27.48;;
52468;SDS011;38381;53.688;10.776;2024-03-02T09:35:11;34.88;;;25.35;;
52468;SDS011;38381;53.688;10.776;2024-03-02T09:40:13;35.72;;;24.42;;
52468;SDS011;38381;53.688;10.776;2024-03-02T09:45:13;35.72;;;24.05;;
52468;SDS011;38381;53.688;10.776;2024-03-02T09:50:14;31.23;;;22.95;;
52468;SDS011;38381;53.688;10.776;2024-03-02T09:55:15;29.83;;;21.17;;
52468;SDS011;38381;53.688;10.776;2024-03-02T10:00:18;31.80;;;23.38;;
52468;SDS011;38381;53.688;10.776;2024-03-02T10:05:25;31.67;;;20.90;;
52468;SDS011;38381;53.688;10.776;2024-03-02T10:11:01;30.35;;;23.75;;
52468;SDS011;38381;53.688;10.776;2024-03-02T10:15:55;30.40;;;24.00;;
52468;SDS011;38381;53.688;10.776;2024-03-02T10:20:57;26.73;;;20.90;;
52468;SDS011;38381;53.688;10.776;2024-03-02T10:26:17;27.33;;;20.10;;
52468;SDS011;38381;53.688;10.776;2024-03-02T10:31:20;26.65;;;20.40;;
52468;SDS011;38381;53.688;10.776;2024-03-02T10:36:27;26.52;;;18.45;;
52468;SDS011;38381;53.688;10.776;2024-03-02T10:41:28;26.88;;;18.20;;
52468;SDS011;38381;53.688;10.776;2024-03-02T10:46:30;86.60;;;55.28;;
52468;SDS011;38381;53.688;10.776;2024-03-02T10:51:31;160.82;;;99.97;;
52468;SDS011;38381;53.688;10.776;2024-03-02T10:56:33;35.13;;;30.00;;
52468;SDS011;38381;53.688;10.776;2024-03-02T11:01:40;57.33;;;38.85;;
52468;SDS011;38381;53.688;10.776;2024-03-02T11:06:49;76.03;;;50.00;;
52468;SDS011;38381;53.688;10.776;2024-03-02T11:11:56;58.97;;;42.38;;
52468;SDS011;38381;53.688;10.776;2024-03-02T11:17:03;24.23;;;20.75;;
52468;SDS011;38381;53.688;10.776;2024-03-02T11:22:05;25.63;;;18.05;;
52468;SDS011;38381;53.688;10.776;2024-03-02T11:27:06;23.60;;;19.35;;
52468;SDS011;38381;53.688;10.776;2024-03-02T11:32:16;22.15;;;17.55;;
52468;SDS011;38381;53.688;10.776;2024-03-02T11:37:19;21.00;;;16.13;;
52468;SDS011;38381;53.688;10.776;2024-03-02T11:42:20;43.08;;;38.97;;
52468;SDS011;38381;53.688;10.776;2024-03-02T11:47:20;19.90;;;16.20;;
52468;SDS011;38381;53.688;10.776;2024-03-02T11:52:21;17.08;;;15.20;;
52468;SDS011;38381;53.688;10.776;2024-03-02T11:57:22;17.50;;;14.55;;
52468;SDS011;38381;53.688;10.776;2024-03-02T12:02:23;14.27;;;10.65;;
52468;SDS011;38381;53.688;10.776;2024-03-02T12:07:24;16.17;;;11.48;;
52468;SDS011;38381;53.688;10.776;2024-03-02T12:12:24;14.75;;;9.50;;
52468;SDS011;38381;53.688;10.776;2024-03-02T12:17:26;12.32;;;9.70;;
52468;SDS011;38381;53.688;10.776;2024-03-02T12:22:27;12.65;;;8.32;;
52468;SDS011;38381;53.688;10.776;2024-03-02T12:27:29;12.70;;;9.03;;
52468;SDS011;38381;53.688;10.776;2024-03-02T12:32:29;12.90;;;8.63;;
52468;SDS011;38381;53.688;10.776;2024-03-02T12:37:30;23.63;;;19.85;;
52468;SDS011;38381;53.688;10.776;2024-03-02T12:42:31;15.85;;;11.52;;
52468;SDS011;38381;53.688;10.776;2024-03-02T12:47:32;14.18;;;10.30;;
52468;SDS011;38381;53.688;10.776;2024-03-02T12:52:33;11.37;;;9.83;;
52468;SDS011;38381;53.688;10.776;2024-03-02T12:57:34;9.07;;;8.10;;
52468;SDS011;38381;53.688;10.776;2024-03-02T13:02:45;9.10;;;7.50;;
52468;SDS011;38381;53.688;10.776;2024-03-02T13:07:49;9.70;;;8.07;;
52468;SDS011;38381;53.688;10.776;2024-03-02T13:12:50;10.68;;;7.78;;
52468;SDS011;38381;53.688;10.776;2024-03-02T13:17:51;10.10;;;7.20;;
52468;SDS011;38381;53.688;10.776;2024-03-02T13:22:51;10.25;;;7.65;;
52468;SDS011;38381;53.688;10.776;2024-03-02T13:27:52;9.52;;;7.65;;
52468;SDS011;38381;53.688;10.776;2024-03-02T13:32:52;10.75;;;7.72;;
52468;SDS011;38381;53.688;10.776;2024-03-02T13:37:54;9.57;;;6.85;;
52468;SDS011;38381;53.688;10.776;2024-03-02T13:42:54;10.23;;;8.23;;
52468;SDS011;38381;53.688;10.776;2024-03-02T13:47:54;11.95;;;8.27;;
52468;SDS011;38381;53.688;10.776;2024-03-02T13:52:55;12.67;;;7.87;;
52468;SDS011;38381;53.688;10.776;2024-03-02T13:57:55;9.20;;;7.43;;
52468;SDS011;38381;53.688;10.776;2024-03-02T14:02:56;8.32;;;7.05;;
52468;SDS011;38381;53.688;10.776;2024-03-02T14:07:56;9.48;;;6.75;;
52468;SDS011;38381;53.688;10.776;2024-03-02T14:12:57;9.10;;;8.18;;
52468;SDS011;38381;53.688;10.776;2024-03-02T14:17:57;8.10;;;6.83;;
52468;SDS011;38381;53.688;10.776;2024-03-02T14:22:58;9.60;;;6.72;;
52468;SDS011;38381;53.688;10.776;2024-03-02T14:27:59;10.90;;;7.67;;
52468;SDS011;38381;53.688;10.776;2024-03-02T14:33:00;7.68;;;6.93;;
52468;SDS011;38381;53.688;10.776;2024-03-02T14:38:00;10.93;;;7.80;;
52468;SDS011;38381;53.688;10.776;2024-03-02T14:43:01;10.40;;;8.77;;
52468;SDS011;38381;53.688;10.776;2024-03-02T14:48:01;11.15;;;7.93;;
52468;SDS011;38381;53.688;10.776;2024-03-02T14:53:02;11.55;;;9.02;;
52468;SDS011;38381;53.688;10.776;2024-03-02T14:58:02;15.48;;;11.20;;
52468;SDS011;38381;53.688;10.776;2024-03-02T15:03:03;12.38;;;10.10;;
52468;SDS011;38381;53.688;10.776;2024-03-02T15:08:06;12.73;;;11.38;;
52468;SDS011;38381;53.688;10.776;2024-03-02T15:13:07;15.15;;;13.38;;
52468;SDS011;38381;53.688;10.776;2024-03-02T15:18:08;12.93;;;11.50;;
52468;SDS011;38381;53.688;10.776;2024-03-02T15:23:09;14.75;;;10.95;;
52468;SDS011;38381;53.688;10.776;2024-03-02T15:28:09;15.40;;;9.80;;
52468;SDS011;38381;53.688;10.776;2024-03-02T15:33:10;16.55;;;11.60;;
52468;SDS011;38381;53.688;10.776;2024-03-02T15:38:10;12.55;;;10.25;;
52468;SDS011;38381;53.688;10.776;2024-03-02T15:43:15;15.50;;;13.57;;
52468;SDS011;38381;53.688;10.776;2024-03-02T15:48:15;13.27;;;11.50;;
52468;SDS011;38381;53.688;10.776;2024-03-02T15:53:16;12.77;;;10.70;;
52468;SDS011;38381;53.688;10.776;2024-03-02T15:58:16;14.43;;;10.67;;
52468;SDS011;38381;53.688;10.776;2024-03-02T16:03:18;12.03;;;9.33;;
52468;SDS011;38381;53.688;10.776;2024-03-02T16:08:18;11.82;;;9.10;;
52468;SDS011;38381;53.688;10.776;2024-03-02T16:13:19;14.37;;;9.97;;
52468;SDS011;38381;53.688;10.776;2024-03-02T16:18:19;13.85;;;10.43;;
52468;SDS011;38381;53.688;10.776;2024-03-02T16:23:20;13.15;;;11.05;;
52468;SDS011;38381;53.688;10.776;2024-03-02T16:28:21;13.93;;;11.07;;
52468;SDS011;38381;53.688;10.776;2024-03-02T16:33:21;14.27;;;12.77;;
52468;SDS011;38381;53.688;10.776;2024-03-02T16:38:22;14.32;;;12.23;;
52468;SDS011;38381;53.688;10.776;2024-03-02T16:43:22;19.10;;;13.13;;
52468;SDS011;38381;53.688;10.776;2024-03-02T16:48:23;18.05;;;12.10;;
52468;SDS011;38381;53.688;10.776;2024-03-02T16:53:23;15.05;;;13.10;;
52468;SDS011;38381;53.688;10.776;2024-03-02T16:58:24;17.13;;;13.75;;
52468;SDS011;38381;53.688;10.776;2024-03-02T17:03:24;18.88;;;14.40;;
52468;SDS011;38381;53.688;10.776;2024-03-02T17:08:25;19.33;;;15.50;;
52468;SDS011;38381;53.688;10.776;2024-03-02T17:13:25;15.60;;;13.43;;
52468;SDS011;38381;53.688;10.776;2024-03-02T17:18:26;20.67;;;14.43;;
52468;SDS011;38381;53.688;10.776;2024-03-02T17:23:26;17.03;;;15.23;;
52468;SDS011;38381;53.688;10.776;2024-03-02T17:28:31;17.67;;;13.88;;
52468;SDS011;38381;53.688;10.776;2024-03-02T17:33:31;25.58;;;16.20;;
52468;SDS011;38381;53.688;10.776;2024-03-02T17:38:32;17.83;;;15.15;;
52468;SDS011;38381;53.688;10.776;2024-03-02T17:43:32;18.13;;;15.02;;
52468;SDS011;38381;53.688;10.776;2024-03-02T17:48:33;21.45;;;14.95;;
52468;SDS011;38381;53.688;10.776;2024-03-02T17:53:33;23.75;;;16.45;;
52468;SDS011;38381;53.688;10.776;2024-03-02T17:58:33;18.70;;;14.67;;
52468;SDS011;38381;53.688;10.776;2024-03-02T18:03:34;18.98;;;15.18;;
52468;SDS011;38381;53.688;10.776;2024-03-02T18:08:34;34.53;;;25.40;;
52468;SDS011;38381;53.688;10.776;2024-03-02T18:13:35;18.50;;;16.30;;
52468;SDS011;38381;53.688;10.776;2024-03-02T18:18:35;20.38;;;14.88;;
52468;SDS011;38381;53.688;10.776;2024-03-02T18:23:36;20.27;;;15.23;;
52468;SDS011;38381;53.688;10.776;2024-03-02T18:28:36;18.33;;;14.35;;
52468;SDS011;38381;53.688;10.776;2024-03-02T18:33:36;21.63;;;16.70;;
52468;SDS011;38381;53.688;10.776;2024-03-02T18:38:37;22.85;;;17.73;;
52468;SDS011;38381;53.688;10.776;2024-03-02T18:43:37;20.50;;;18.38;;
52468;SDS011;38381;53.688;10.776;2024-03-02T18:48:38;17.50;;;15.25;;
52468;SDS011;38381;53.688;10.776;2024-03-02T18:53:38;21.85;;;15.95;;
52468;SDS011;38381;53.688;10.776;2024-03-02T18:58:39;21.60;;;15.82;;
52468;SDS011;38381;53.688;10.776;2024-03-02T19:03:39;20.58;;;16.48;;
52468;SDS011;38381;53.688;10.776;2024-03-02T19:08:40;21.93;;;18.57;;
52468;SDS011;38381;53.688;10.776;2024-03-02T19:13:40;20.05;;;17.13;;
52468;SDS011;38381;53.688;10.776;2024-03-02T19:18:42;21.25;;;16.02;;
52468;SDS011;38381;53.688;10.776;2024-03-02T19:23:42;19.13;;;15.77;;
52468;SDS011;38381;53.688;10.776;2024-03-02T19:28:43;20.85;;;16.25;;
52468;SDS011;38381;53.688;10.776;2024-03-02T19:33:44;21.08;;;16.35;;
52468;SDS011;38381;53.688;10.776;2024-03-02T19:38:46;21.95;;;18.02;;
52468;SDS011;38381;53.688;10.776;2024-03-02T19:43:46;19.85;;;17.17;;
52468;SDS011;38381;53.688;10.776;2024-03-02T19:48:47;21.00;;;17.58;;
52468;SDS011;38381;53.688;10.776;2024-03-02T19:53:47;25.23;;;17.77;;
52468;SDS011;38381;53.688;10.776;2024-03-02T19:58:47;20.70;;;18.45;;
52468;SDS011;38381;53.688;10.776;2024-03-02T20:03:48;23.08;;;17.92;;
52468;SDS011;38381;53.688;10.776;2024-03-02T20:08:50;23.33;;;18.33;;
52468;SDS011;38381;53.688;10.776;2024-03-02T20:13:51;25.70;;;20.77;;
52468;SDS011;38381;53.688;10.776;2024-03-02T20:18:51;26.77;;;19.10;;
52468;SDS011;38381;53.688;10.776;2024-03-02T20:23:52;24.23;;;19.20;;
52468;SDS011;38381;53.688;10.776;2024-03-02T20:28:52;28.67;;;19.48;;
52468;SDS011;38381;53.688;10.776;2024-03-02T20:33:53;23.92;;;19.40;;
52468;SDS011;38381;53.688;10.776;2024-03-02T20:38:53;31.85;;;21.45;;
52468;SDS011;38381;53.688;10.776;2024-03-02T20:43:54;23.92;;;20.08;;
52468;SDS011;38381;53.688;10.776;2024-03-02T20:48:54;22.48;;;17.58;;
52468;SDS011;38381;53.688;10.776;2024-03-02T20:54:00;27.05;;;19.00;;
52468;SDS011;38381;53.688;10.776;2024-03-02T20:59:03;22.67;;;18.05;;
52468;SDS011;38381;53.688;10.776;2024-03-02T21:04:04;25.85;;;19.30;;
52468;SDS011;38381;53.688;10.776;2024-03-02T21:09:05;22.75;;;19.10;;
52468;SDS011;38381;53.688;10.776;2024-03-02T21:14:06;25.13;;;19.70;;
52468;SDS011;38381;53.688;10.776;2024-03-02T21:19:07;21.95;;;17.55;;
52468;SDS011;38381;53.688;10.776;2024-03-02T21:24:08;28.13;;;20.75;;
52468;SDS011;38381;53.688;10.776;2024-03-02T21:29:08;26.45;;;20.73;;
52468;SDS011;38381;53.688;10.776;2024-03-02T21:34:09;25.85;;;19.88;;
52468;SDS011;38381;53.688;10.776;2024-03-02T21:39:10;47.30;;;33.30;;
52468;SDS011;38381;53.688;10.776;2024-03-02T21:50:09;25.38;;;19.55;;
52468;SDS011;38381;53.688;10.776;2024-03-02T21:55:11;22.08;;;18.52;;
52468;SDS011;38381;53.688;10.776;2024-03-02T22:00:13;26.03;;;19.73;;
52468;SDS011;38381;53.688;10.776;2024-03-02T22:05:14;24.40;;;19.00;;
52468;SDS011;38381;53.688;10.776;2024-03-02T22:10:15;23.25;;;19.48;;
52468;SDS011;38381;53.688;10.776;2024-03-02T22:15:16;28.42;;;21.35;;
52468;SDS011;38381;53.688;10.776;2024-03-02T22:20:16;25.20;;;20.77;;
52468;SDS011;38381;53.688;10.776;2024-03-02T22:25:17;30.90;;;23.45;;
52468;SDS011;38381;53.688;10.776;2024-03-02T22:30:17;25.90;;;19.45;;
52468;SDS011;38381;53.688;10.776;2024-03-02T22:35:18;22.30;;;17.75;;
52468;SDS011;38381;53.688;10.776;2024-03-02T22:40:18;25.00;;;19.05;;
52468;SDS011;38381;53.688;10.776;2024-03-02T22:45:19;25.33;;;19.25;;
52468;SDS011;38381;53.688;10.776;2024-03-02T22:50:19;21.40;;;16.45;;
52468;SDS011;38381;53.688;10.776;2024-03-02T22:55:20;28.48;;;20.13;;
52468;SDS011;38381;53.688;10.776;2024-03-02T23:00:20;21.63;;;18.30;;
52468;SDS011;38381;53.688;10.776;2024-03-02T23:05:47;26.85;;;20.48;;
52468;SDS011;38381;53.688;10.776;2024-03-02T23:10:47;21.92;;;18.45;;
52468;SDS011;38381;53.688;10.776;2024-03-02T23:15:48;24.75;;;18.77;;
52468;SDS011;38381;53.688;10.776;2024-03-02T23:20:48;26.58;;;20.25;;
52468;SDS011;38381;53.688;10.776;2024-03-02T23:25:49;25.48;;;19.52;;
52468;SDS011;38381;53.688;10.776;2024-03-02T23:30:49;26.92;;;18.85;;
52468;SDS011;38381;53.688;10.776;2024-03-02T23:35:50;29.02;;;19.52;;
52468;SDS011;38381;53.688;10.776;2024-03-02T23:40:50;24.27;;;18.50;;
52468;SDS011;38381;53.688;10.776;2024-03-02T23:46:10;24.25;;;18.65;;
52468;SDS011;38381;53.688;10.776;2024-03-02T23:51:11;26.60;;;19.20;;
52468;SDS011;38381;53.688;10.776;2024-03-02T23:56:12;26.23;;;19.83;;
